createdAt,value
2018-11-25T00:00:10.313Z,37.47
2018-11-25T00:02:39.909Z,33.08
2018-11-25T00:05:09.448Z,34.03
2018-11-25T00:07:38.925Z,31.27
2018-11-25T00:10:08.826Z,39.25
2018-11-25T00:12:36.731Z,33.90
2018-11-25T00:15:05.337Z,43.40
2018-11-25T00:17:34.784Z,37.00
2018-11-25T00:20:04.604Z,39.42
2018-11-25T00:22:32.364Z,35.17
2018-11-25T00:25:00.161Z,37.33
2018-11-25T00:27:28.099Z,37.78
2018-11-25T00:29:55.864Z,36.67
2018-11-25T00:32:23.837Z,40.63
2018-11-25T00:34:51.649Z,33.37
2018-11-25T00:37:19.487Z,33.40
2018-11-25T00:39:47.728Z,33.20
2018-11-25T00:42:15.813Z,37.93
2018-11-25T00:44:44.538Z,36.40
2018-11-25T00:47:12.689Z,39.17
2018-11-25T00:49:42.171Z,32.97
2018-11-25T00:52:09.978Z,30.67
2018-11-25T00:54:39.748Z,32.35
2018-11-25T00:57:07.973Z,32.00
2018-11-25T00:59:35.803Z,31.58
2018-11-25T01:02:05.362Z,30.65
2018-11-25T01:04:33.795Z,29.35
2018-11-25T01:07:01.795Z,31.95
2018-11-25T01:09:29.614Z,37.20
2018-11-25T01:11:57.603Z,33.80
2018-11-25T01:14:26.001Z,29.70
2018-11-25T01:16:53.380Z,30.60
2018-11-25T01:19:22.059Z,29.40
2018-11-25T01:21:50.346Z,31.47
2018-11-25T01:24:18.252Z,29.13
2018-11-25T01:26:47.840Z,29.67
2018-11-25T01:29:16.430Z,32.22
2018-11-25T01:31:45.653Z,26.00
2018-11-25T01:34:13.657Z,28.20
2018-11-25T01:36:41.537Z,31.50
2018-11-25T01:39:09.559Z,28.70
2018-11-25T01:41:37.580Z,26.62
2018-11-25T01:44:05.469Z,26.92
2018-11-25T01:46:33.467Z,37.83
2018-11-25T01:49:01.501Z,28.25
2018-11-25T01:51:29.513Z,28.87
2018-11-25T01:53:57.243Z,26.70
2018-11-25T01:56:25.222Z,21.17
2018-11-25T01:58:54.619Z,25.60
2018-11-25T02:01:22.480Z,28.27
2018-11-25T02:03:50.359Z,25.00
2018-11-25T02:06:20.055Z,27.62
2018-11-25T02:08:47.937Z,27.48
2018-11-25T02:11:15.907Z,26.50
2018-11-25T02:13:43.759Z,28.37
2018-11-25T02:16:11.646Z,27.60
2018-11-25T02:18:41.049Z,23.48
2018-11-25T02:21:10.381Z,30.33
2018-11-25T02:23:37.987Z,27.92
2018-11-25T02:26:05.998Z,25.77
2018-11-25T02:28:34.155Z,22.93
2018-11-25T02:31:01.708Z,29.00
2018-11-25T02:33:29.841Z,26.93
2018-11-25T02:35:59.462Z,28.13
2018-11-25T02:38:28.422Z,23.27
2018-11-25T02:40:57.258Z,19.40
2018-11-25T02:43:27.193Z,22.48
2018-11-25T02:45:55.761Z,23.37
2018-11-25T02:48:23.504Z,20.10
2018-11-25T02:50:52.959Z,20.00
2018-11-25T02:53:22.652Z,29.43
2018-11-25T02:55:50.793Z,25.60
2018-11-25T02:58:20.581Z,20.73
2018-11-25T03:00:50.176Z,19.30
2018-11-25T03:03:18.777Z,17.63
2018-11-25T03:05:48.929Z,22.37
2018-11-25T03:08:17.631Z,23.20
2018-11-25T03:10:46.209Z,19.03
2018-11-25T03:13:14.267Z,24.98
2018-11-25T03:15:44.538Z,22.80
2018-11-25T03:18:14.319Z,22.90
2018-11-25T03:20:42.345Z,29.23
2018-11-25T03:23:10.261Z,24.60
2018-11-25T03:25:39.775Z,21.73
2018-11-25T03:28:09.920Z,23.57
2018-11-25T03:30:37.463Z,24.30
2018-11-25T03:33:07.125Z,23.37
2018-11-25T03:35:34.935Z,21.77
2018-11-25T03:38:04.211Z,23.35
2018-11-25T03:40:32.375Z,22.00
2018-11-25T03:43:02.487Z,21.00
2018-11-25T03:45:30.303Z,27.55
2018-11-25T03:47:59.675Z,22.45
2018-11-25T03:50:27.705Z,23.90
2018-11-25T03:52:55.494Z,21.73
2018-11-25T03:55:23.697Z,18.30
2018-11-25T03:57:53.669Z,21.50
2018-11-25T04:00:24.964Z,24.17
2018-11-25T04:02:55.274Z,22.00
2018-11-25T04:05:22.857Z,24.87
2018-11-25T04:07:51.995Z,19.23
2018-11-25T04:10:20.593Z,26.07
2018-11-25T04:12:48.960Z,22.53
2018-11-25T04:15:20.223Z,26.00
2018-11-25T04:17:50.585Z,26.17
2018-11-25T04:20:22.989Z,26.20
2018-11-25T04:22:52.318Z,20.57
2018-11-25T04:25:21.877Z,22.58
2018-11-25T04:27:50.448Z,16.33
2018-11-25T04:30:20.785Z,22.30
2018-11-25T04:32:49.138Z,22.10
2018-11-25T04:35:17.735Z,19.70
2018-11-25T04:37:47.543Z,21.97
2018-11-25T04:40:16.097Z,24.10
2018-11-25T04:42:45.554Z,25.90
2018-11-25T04:45:15.286Z,28.00
2018-11-25T04:47:44.809Z,24.60
2018-11-25T04:50:22.324Z,24.83
2018-11-25T04:52:52.424Z,24.83
2018-11-25T04:55:20.184Z,26.27
2018-11-25T04:57:54.147Z,21.62
2018-11-25T05:00:23.799Z,23.12
2018-11-25T05:02:53.473Z,18.83
2018-11-25T05:05:24.440Z,22.00
2018-11-25T05:07:54.982Z,23.33
2018-11-25T05:10:23.006Z,25.53
2018-11-25T05:12:52.144Z,27.17
2018-11-25T05:15:20.290Z,19.00
2018-11-25T05:17:49.625Z,18.83
2018-11-25T05:20:19.553Z,23.80
2018-11-25T05:22:47.282Z,24.33
2018-11-25T05:25:15.271Z,34.22
2018-11-25T05:27:43.058Z,25.97
2018-11-25T05:30:15.681Z,27.53
2018-11-25T05:32:43.657Z,28.50
2018-11-25T05:35:13.629Z,22.47
2018-11-25T05:37:43.421Z,25.63
2018-11-25T05:40:11.987Z,33.33
2018-11-25T05:42:39.885Z,27.40
2018-11-25T05:45:15.655Z,29.03
2018-11-25T05:47:43.916Z,13.60
2018-11-25T05:50:15.550Z,26.70
2018-11-25T05:52:43.304Z,26.63
2018-11-25T05:55:13.267Z,27.70
2018-11-25T05:57:42.633Z,29.47
2018-11-25T06:00:15.843Z,31.00
2018-11-25T06:02:43.676Z,26.97
2018-11-25T06:05:11.673Z,30.80
2018-11-25T06:07:39.564Z,25.83
2018-11-25T06:10:11.014Z,29.37
2018-11-25T06:12:39.402Z,37.47
2018-11-25T06:15:10.850Z,29.70
2018-11-25T06:17:38.947Z,22.27
2018-11-25T06:20:08.134Z,25.80
2018-11-25T06:22:35.997Z,22.50
2018-11-25T06:25:05.377Z,27.37
2018-11-25T06:27:38.166Z,26.80
2018-11-25T06:30:02.808Z,28.13
2018-11-25T06:32:32.385Z,28.37
2018-11-25T06:35:01.775Z,19.07
2018-11-25T06:37:31.387Z,18.87
2018-11-25T06:39:59.219Z,10.23
2018-11-25T06:42:27.281Z,18.83
2018-11-25T06:44:55.251Z,30.27
2018-11-25T06:47:23.404Z,34.83
2018-11-25T06:49:51.264Z,12.17
2018-11-25T06:52:19.127Z,36.40
2018-11-25T06:54:47.187Z,36.60
2018-11-25T06:57:15.749Z,33.77
2018-11-25T06:59:43.729Z,31.83
2018-11-25T07:02:11.736Z,36.40
2018-11-25T07:04:40.050Z,32.07
2018-11-25T07:07:07.829Z,34.03
2018-11-25T07:09:36.414Z,37.70
2018-11-25T07:12:04.735Z,29.83
2018-11-25T07:14:34.710Z,39.60
2018-11-25T07:17:02.556Z,39.07
2018-11-25T07:19:32.181Z,34.50
2018-11-25T07:21:59.922Z,36.73
2018-11-25T07:24:29.284Z,36.73
2018-11-25T07:26:58.577Z,34.10
2018-11-25T07:29:26.334Z,37.60
2018-11-25T07:31:54.173Z,19.10
2018-11-25T07:34:22.138Z,34.03
2018-11-25T07:36:50.078Z,33.13
2018-11-25T07:39:19.730Z,35.50
2018-11-25T07:41:49.383Z,23.37
2018-11-25T07:44:17.254Z,26.48
2018-11-25T07:46:47.038Z,30.40
2018-11-25T07:49:15.657Z,25.40
2018-11-25T07:51:43.612Z,35.67
2018-11-25T07:54:12.998Z,32.70
2018-11-25T07:56:42.622Z,35.27
2018-11-25T07:59:12.210Z,21.53
2018-11-25T08:01:41.714Z,33.40
2018-11-25T08:04:11.322Z,31.57
2018-11-25T08:06:39.339Z,32.70
2018-11-25T08:09:08.488Z,29.00
2018-11-25T08:11:36.341Z,33.03
2018-11-25T08:14:04.487Z,31.50
2018-11-25T08:16:33.753Z,22.70
2018-11-25T08:19:01.767Z,35.63
2018-11-25T08:21:29.988Z,37.27
2018-11-25T08:23:58.068Z,33.03
2018-11-25T08:26:25.929Z,27.90
2018-11-25T08:28:53.903Z,27.77
2018-11-25T08:31:23.218Z,38.43
2018-11-25T08:33:51.263Z,33.57
2018-11-25T08:36:20.346Z,34.97
2018-11-25T08:38:50.393Z,30.05
2018-11-25T08:41:20.074Z,33.75
2018-11-25T08:43:49.463Z,32.75
2018-11-25T08:46:17.277Z,32.63
2018-11-25T08:48:45.355Z,26.63
2018-11-25T08:51:14.889Z,18.03
2018-11-25T08:53:42.605Z,27.43
2018-11-25T08:56:10.157Z,25.00
2018-11-25T08:58:37.724Z,27.93
2018-11-25T09:01:05.909Z,30.45
2018-11-25T09:03:35.508Z,38.67
2018-11-25T09:06:03.895Z,28.47
2018-11-25T09:08:31.899Z,34.97
2018-11-25T09:10:59.797Z,32.65
2018-11-25T09:13:29.407Z,32.38
2018-11-25T09:15:59.003Z,30.67
2018-11-25T09:18:28.709Z,28.27
2018-11-25T09:20:58.211Z,30.88
2018-11-25T09:23:26.285Z,28.07
2018-11-25T09:25:54.198Z,32.55
2018-11-25T09:28:23.267Z,29.77
2018-11-25T09:30:51.355Z,36.47
2018-11-25T09:33:21.322Z,31.75
2018-11-25T09:35:50.958Z,33.92
2018-11-25T09:38:18.977Z,38.92
2018-11-25T09:40:48.396Z,37.85
2018-11-25T09:43:16.014Z,29.33
2018-11-25T09:45:44.048Z,31.87
2018-11-25T09:48:12.077Z,33.20
2018-11-25T09:50:40.041Z,30.80
2018-11-25T09:53:08.206Z,32.38
2018-11-25T09:55:37.882Z,30.30
2018-11-25T09:58:07.619Z,31.77
2018-11-25T10:00:37.105Z,29.20
2018-11-25T10:03:04.155Z,20.90
2018-11-25T10:05:32.693Z,17.80
2018-11-25T10:08:02.238Z,32.45
2018-11-25T10:10:31.359Z,24.63
2018-11-25T10:12:59.538Z,19.30
2018-11-25T10:15:28.205Z,24.98
2018-11-25T10:17:59.866Z,11.63
2018-11-25T10:20:26.357Z,23.10
2018-11-25T10:22:54.366Z,27.23
2018-11-25T10:25:24.009Z,14.93
2018-11-25T10:27:52.151Z,30.77
2018-11-25T10:30:21.005Z,31.13
2018-11-25T10:32:49.592Z,29.67
2018-11-25T10:35:19.789Z,32.93
2018-11-25T10:37:49.143Z,33.03
2018-11-25T10:40:18.274Z,27.77
2018-11-25T10:42:47.506Z,32.30
2018-11-25T10:45:16.325Z,28.77
2018-11-25T10:47:44.249Z,41.23
2018-11-25T10:50:22.397Z,29.70
2018-11-25T10:52:52.250Z,33.90
2018-11-25T10:55:21.253Z,27.37
2018-11-25T10:57:49.701Z,19.63
2018-11-25T11:00:42.132Z,32.77
2018-11-25T11:03:27.869Z,27.60
2018-11-25T11:06:13.486Z,32.58
2018-11-25T11:08:42.002Z,26.70
2018-11-25T11:11:11.358Z,33.42
2018-11-25T11:13:39.537Z,22.80
2018-11-25T11:16:07.384Z,18.62
2018-11-25T11:18:35.268Z,27.13
2018-11-25T11:21:03.427Z,32.63
2018-11-25T11:23:31.389Z,28.85
2018-11-25T11:26:06.723Z,33.38
2018-11-25T11:28:28.839Z,28.10
2018-11-25T11:30:56.632Z,23.90
2018-11-25T11:33:24.657Z,30.23
2018-11-25T11:35:53.944Z,26.02
2018-11-25T11:38:21.920Z,18.62
2018-11-25T11:40:51.700Z,26.40
2018-11-25T11:43:20.242Z,20.93
2018-11-25T11:45:48.459Z,14.57
2018-11-25T11:48:16.363Z,22.23
2018-11-25T11:50:44.692Z,26.87
2018-11-25T11:53:12.433Z,25.27
2018-11-25T11:55:40.190Z,24.90
2018-11-25T11:58:08.335Z,24.12
2018-11-25T12:00:36.808Z,23.25
2018-11-25T12:03:04.672Z,25.67
2018-11-25T12:05:32.759Z,22.30
2018-11-25T12:08:02.416Z,18.37
2018-11-25T12:10:31.530Z,27.13
2018-11-25T12:13:00.940Z,26.37
2018-11-25T12:15:30.835Z,24.58
2018-11-25T12:17:59.015Z,29.37
2018-11-25T12:20:27.615Z,29.27
2018-11-25T12:22:56.114Z,27.47
2018-11-25T12:25:25.484Z,35.10
2018-11-25T12:27:54.775Z,32.67
2018-11-25T12:30:23.879Z,28.33
2018-11-25T12:32:52.647Z,36.13
2018-11-25T12:35:21.244Z,33.75
2018-11-25T12:37:49.800Z,24.42
2018-11-25T12:40:18.324Z,26.07
2018-11-25T12:43:03.801Z,33.15
2018-11-25T12:45:32.432Z,32.27
2018-11-25T12:48:02.394Z,35.90
2018-11-25T12:50:30.480Z,27.45
2018-11-25T12:52:59.561Z,19.30
2018-11-25T12:55:28.041Z,31.65
2018-11-25T12:57:56.629Z,30.37
2018-11-25T13:00:34.508Z,32.65
2018-11-25T13:03:02.616Z,40.45
2018-11-25T13:05:30.777Z,34.78
2018-11-25T13:08:00.383Z,37.35
2018-11-25T13:10:28.266Z,33.67
2018-11-25T13:12:57.780Z,31.83
2018-11-25T13:15:27.156Z,39.27
2018-11-25T13:17:55.008Z,47.83
2018-11-25T13:20:23.104Z,48.43
2018-11-25T13:22:50.987Z,40.92
2018-11-25T13:25:20.450Z,39.83
2018-11-25T13:27:49.972Z,39.72
2018-11-25T13:30:18.580Z,35.92
2018-11-25T13:32:46.501Z,43.10
2018-11-25T13:35:14.621Z,23.73
2018-11-25T13:37:44.389Z,40.77
2018-11-25T13:40:14.718Z,45.87
2018-11-25T13:42:42.608Z,44.70
2018-11-25T13:45:12.286Z,31.45
2018-11-25T13:47:42.485Z,26.83
2018-11-25T13:50:12.347Z,33.73
2018-11-25T13:52:40.363Z,39.87
2018-11-25T13:55:12.304Z,26.45
2018-11-25T13:57:41.647Z,25.37
2018-11-25T14:00:34.654Z,27.60
2018-11-25T14:03:03.526Z,33.80
2018-11-25T14:05:31.591Z,31.93
2018-11-25T14:08:01.530Z,24.90
2018-11-25T14:10:32.079Z,27.07
2018-11-25T14:13:01.508Z,19.10
2018-11-25T14:15:29.746Z,22.20
2018-11-25T14:17:57.253Z,19.92
2018-11-25T14:20:25.325Z,29.47
2018-11-25T14:22:55.567Z,27.13
2018-11-25T14:25:26.087Z,33.40
2018-11-25T14:27:55.145Z,27.83
2018-11-25T14:30:25.636Z,31.77
2018-11-25T14:33:05.173Z,15.77
2018-11-25T14:35:34.820Z,20.43
2018-11-25T14:38:04.236Z,17.30
2018-11-25T14:40:32.603Z,23.33
2018-11-25T14:43:02.360Z,36.77
2018-11-25T14:45:31.883Z,27.67
2018-11-25T14:48:01.599Z,29.25
2018-11-25T14:50:29.979Z,23.63
2018-11-25T14:52:57.934Z,27.03
2018-11-25T14:55:25.823Z,13.93
2018-11-25T14:57:55.615Z,25.20
2018-11-25T15:00:23.092Z,28.62
2018-11-25T15:03:00.390Z,24.30
2018-11-25T15:05:42.533Z,28.13
2018-11-25T15:08:11.450Z,23.07
2018-11-25T15:10:39.011Z,35.73
2018-11-25T15:13:07.577Z,32.90
2018-11-25T15:15:35.539Z,26.40
2018-11-25T15:18:03.624Z,20.10
2018-11-25T15:20:33.028Z,29.13
2018-11-25T15:23:01.668Z,32.47
2018-11-25T15:25:36.639Z,27.30
2018-11-25T15:28:06.380Z,39.20
2018-11-25T15:30:34.906Z,41.90
2018-11-25T15:33:02.814Z,42.60
2018-11-25T15:35:32.421Z,38.30
2018-11-25T15:38:00.427Z,42.38
2018-11-25T15:40:30.632Z,31.73
2018-11-25T15:43:00.083Z,21.25
2018-11-25T15:45:28.088Z,38.30
2018-11-25T15:48:21.354Z,48.22
2018-11-25T15:50:50.921Z,50.77
2018-11-25T15:53:18.806Z,50.80
2018-11-25T15:55:49.718Z,45.08
2018-11-25T15:58:17.856Z,42.00
2018-11-25T16:00:47.296Z,48.55
2018-11-25T16:03:15.558Z,47.58
2018-11-25T16:05:44.701Z,35.27
2018-11-25T16:08:14.079Z,36.67
2018-11-25T16:10:42.097Z,45.87
2018-11-25T16:13:09.953Z,30.63
2018-11-25T16:15:37.838Z,48.33
2018-11-25T16:18:07.429Z,29.17
2018-11-25T16:20:35.413Z,54.63
2018-11-25T16:23:04.294Z,45.83
2018-11-25T16:25:41.806Z,48.33
2018-11-25T16:28:21.510Z,48.30
2018-11-25T16:30:49.986Z,44.73
2018-11-25T16:33:18.422Z,43.95
2018-11-25T16:35:48.447Z,24.27
2018-11-25T16:38:17.229Z,28.50
2018-11-25T16:40:46.833Z,30.03
2018-11-25T16:43:14.771Z,43.70
2018-11-25T16:45:42.862Z,41.43
2018-11-25T16:48:12.494Z,48.83
2018-11-25T16:50:40.315Z,52.03
2018-11-25T16:53:09.448Z,47.97
2018-11-25T16:55:38.892Z,31.87
2018-11-25T16:58:07.320Z,25.80
2018-11-25T17:00:36.369Z,55.58
2018-11-25T17:03:05.755Z,51.85
2018-11-25T17:05:35.982Z,52.00
2018-11-25T17:08:11.204Z,42.47
2018-11-25T17:10:39.193Z,37.58
2018-11-25T17:13:09.012Z,43.87
2018-11-25T17:15:36.778Z,39.63
2018-11-25T17:18:04.682Z,38.10
2018-11-25T17:20:32.555Z,30.52
2018-11-25T17:23:00.547Z,61.17
2018-11-25T17:25:28.662Z,48.13
2018-11-25T17:27:56.242Z,28.60
2018-11-25T17:30:26.131Z,40.63
2018-11-25T17:32:53.975Z,42.50
2018-11-25T17:35:25.766Z,55.60
2018-11-25T17:37:53.821Z,48.90
2018-11-25T17:40:22.341Z,52.67
2018-11-25T17:42:51.907Z,44.55
2018-11-25T17:45:20.352Z,58.33
2018-11-25T17:47:50.320Z,54.30
2018-11-25T17:50:26.776Z,35.77
2018-11-25T17:52:54.571Z,55.20
2018-11-25T17:55:23.392Z,49.00
2018-11-25T17:57:51.408Z,39.70
2018-11-25T18:00:50.919Z,31.15
2018-11-25T18:03:24.420Z,44.63
2018-11-25T18:05:52.966Z,59.65
2018-11-25T18:08:20.898Z,46.90
2018-11-25T18:10:50.668Z,51.50
2018-11-25T18:13:20.023Z,32.00
2018-11-25T18:15:48.399Z,61.08
2018-11-25T18:18:35.444Z,55.97
2018-11-25T18:21:03.936Z,44.10
2018-11-25T18:23:32.386Z,57.05
2018-11-25T18:25:59.948Z,55.97
2018-11-25T18:28:27.496Z,48.13
2018-11-25T18:30:56.151Z,54.33
2018-11-25T18:33:24.797Z,23.23
2018-11-25T18:35:52.898Z,56.92
2018-11-25T18:38:21.478Z,48.10
2018-11-25T18:40:49.597Z,60.05
2018-11-25T18:43:17.599Z,48.00
2018-11-25T18:45:45.698Z,41.85
2018-11-25T18:48:14.637Z,52.10
2018-11-25T18:50:42.808Z,42.85
2018-11-25T18:53:13.384Z,48.38
2018-11-25T18:55:40.769Z,49.58
2018-11-25T18:58:08.966Z,51.33
2018-11-25T19:00:47.663Z,51.75
2018-11-25T19:03:15.483Z,50.60
2018-11-25T19:05:45.107Z,38.17
2018-11-25T19:08:13.684Z,50.95
2018-11-25T19:10:41.734Z,61.23
2018-11-25T19:13:11.803Z,37.63
2018-11-25T19:15:39.363Z,43.92
2018-11-25T19:18:09.708Z,49.40
2018-11-25T19:20:37.616Z,57.90
2018-11-25T19:23:07.617Z,54.75
2018-11-25T19:25:37.225Z,52.53
2018-11-25T19:28:06.613Z,46.75
2018-11-25T19:30:34.795Z,46.70
2018-11-25T19:33:03.400Z,22.13
2018-11-25T19:35:31.274Z,42.60
2018-11-25T19:37:58.906Z,39.22
2018-11-25T19:40:28.728Z,54.25
2018-11-25T19:42:58.076Z,50.60
2018-11-25T19:45:26.822Z,44.28
2018-11-25T19:47:55.782Z,51.37
2018-11-25T19:50:27.632Z,34.15
2018-11-25T19:52:55.302Z,40.03
2018-11-25T19:55:24.457Z,38.08
2018-11-25T19:57:53.793Z,36.30
2018-11-25T20:00:23.979Z,36.95
2018-11-25T20:02:51.828Z,37.63
2018-11-25T20:05:21.653Z,39.13
2018-11-25T20:07:51.458Z,37.38
2018-11-25T20:10:20.618Z,25.75
2018-11-25T20:12:49.375Z,35.78
2018-11-25T20:15:17.896Z,26.42
2018-11-25T20:17:54.187Z,33.88
2018-11-25T20:20:16.008Z,28.27
2018-11-25T20:22:45.848Z,30.83
2018-11-25T20:25:16.417Z,27.70
2018-11-25T20:27:45.449Z,34.40
2018-11-25T20:30:15.688Z,38.65
2018-11-25T20:33:01.050Z,36.47
2018-11-25T20:35:28.973Z,33.20
2018-11-25T20:38:14.372Z,34.42
2018-11-25T20:40:42.543Z,42.85
2018-11-25T20:43:10.464Z,39.15
2018-11-25T20:45:56.440Z,34.22
2018-11-25T20:48:24.036Z,31.00
2018-11-25T20:50:53.857Z,32.67
2018-11-25T20:53:39.285Z,33.77
2018-11-25T20:56:07.409Z,41.03
2018-11-25T20:58:35.543Z,32.90
2018-11-25T21:01:04.351Z,37.45
2018-11-25T21:03:32.520Z,31.10
2018-11-25T21:06:01.890Z,21.27
2018-11-25T21:08:31.599Z,26.35
2018-11-25T21:11:00.922Z,25.95
2018-11-25T21:13:28.805Z,32.17
2018-11-25T21:15:59.144Z,37.88
2018-11-25T21:18:26.705Z,29.77
2018-11-25T21:20:56.047Z,32.90
2018-11-25T21:23:24.190Z,27.40
2018-11-25T21:25:53.574Z,28.08
2018-11-25T21:28:22.215Z,25.00
2018-11-25T21:30:50.615Z,30.77
2018-11-25T21:33:18.690Z,37.93
2018-11-25T21:35:46.265Z,32.20
2018-11-25T21:38:15.733Z,27.52
2018-11-25T21:40:43.833Z,41.75
2018-11-25T21:43:13.011Z,33.10
2018-11-25T21:45:41.132Z,39.80
2018-11-25T21:48:10.572Z,27.10
2018-11-25T21:50:40.172Z,42.22
2018-11-25T21:53:08.205Z,38.38
2018-11-25T21:55:36.325Z,40.95
2018-11-25T21:58:06.083Z,40.53
2018-11-25T22:00:34.702Z,44.55
2018-11-25T22:03:04.303Z,43.22
2018-11-25T22:05:31.836Z,32.38
2018-11-25T22:07:59.745Z,28.17
2018-11-25T22:10:27.480Z,41.03
2018-11-25T22:12:55.385Z,32.90
2018-11-25T22:15:25.067Z,37.05
2018-11-25T22:17:52.919Z,47.15
2018-11-25T22:20:22.316Z,41.27
2018-11-25T22:22:51.838Z,33.08
2018-11-25T22:25:22.480Z,29.98
2018-11-25T22:27:51.189Z,30.95
2018-11-25T22:30:21.123Z,43.58
2018-11-25T22:32:48.936Z,37.07
2018-11-25T22:35:19.838Z,30.17
2018-11-25T22:37:49.017Z,45.50
2018-11-25T22:40:20.043Z,37.42
2018-11-25T22:42:48.235Z,38.75
2018-11-25T22:45:17.020Z,41.53
2018-11-25T22:47:44.707Z,53.53
2018-11-25T22:50:13.146Z,39.37
2018-11-25T22:52:42.544Z,38.33
2018-11-25T22:55:23.831Z,40.30
2018-11-25T22:57:53.739Z,32.53
2018-11-25T23:00:22.701Z,29.95
2018-11-25T23:02:50.691Z,25.42
2018-11-25T23:05:38.344Z,26.33
2018-11-25T23:08:06.614Z,29.33
2018-11-25T23:10:34.612Z,36.97
2018-11-25T23:13:02.484Z,26.07
2018-11-25T23:15:32.596Z,33.67
2018-11-25T23:18:02.331Z,27.33
2018-11-25T23:20:30.169Z,46.80
2018-11-25T23:22:59.749Z,47.15
2018-11-25T23:25:27.840Z,50.37
2018-11-25T23:27:57.544Z,49.03
2018-11-25T23:30:25.382Z,54.05
2018-11-25T23:32:54.680Z,51.37
2018-11-25T23:35:26.317Z,35.53
2018-11-25T23:37:55.741Z,37.25
2018-11-25T23:40:25.310Z,42.70
2018-11-25T23:42:54.661Z,29.87
2018-11-25T23:45:23.010Z,46.97
2018-11-25T23:47:52.602Z,48.20
2018-11-25T23:50:21.420Z,38.17
2018-11-25T23:52:50.916Z,44.22
2018-11-25T23:55:18.851Z,47.90
2018-11-25T23:57:48.415Z,49.88
